sensor_id;sensor_type;location;lat;lon;timestamp;P1;durP1;ratioP1;P2;durP2;ratioP2
7460;SDS011;6757;52.258;12.840;2023-08-30T00:00:47;3.60;;;1.92;;
7460;SDS011;6757;52.258;12.840;2023-08-30T00:03:14;2.60;;;1.65;;
7460;SDS011;6757;52.258;12.840;2023-08-30T00:05:41;3.65;;;1.83;;
7460;SDS011;6757;52.258;12.840;2023-08-30T00:08:08;3.72;;;1.63;;
7460;SDS011;6757;52.258;12.840;2023-08-30T00:10:37;1.25;;;1.23;;
7460;SDS011;6757;52.258;12.840;2023-08-30T00:13:04;1.08;;;1.08;;
7460;SDS011;6757;52.258;12.840;2023-08-30T00:15:31;2.80;;;1.55;;
7460;SDS011;6757;52.258;12.840;2023-08-30T00:17:58;3.00;;;1.63;;
7460;SDS011;6757;52.258;12.840;2023-08-30T00:20:24;3.28;;;1.70;;
7460;SDS011;6757;52.258;12.840;2023-08-30T00:22:52;1.83;;;1.55;;
7460;SDS011;6757;52.258;12.840;2023-08-30T00:25:18;1.98;;;1.35;;
7460;SDS011;6757;52.258;12.840;2023-08-30T00:27:47;1.80;;;1.55;;
7460;SDS011;6757;52.258;12.840;2023-08-30T00:30:14;3.53;;;1.75;;
7460;SDS011;6757;52.258;12.840;2023-08-30T00:32:41;3.60;;;2.05;;
7460;SDS011;6757;52.258;12.840;2023-08-30T00:35:07;2.42;;;1.75;;
7460;SDS011;6757;52.258;12.840;2023-08-30T00:37:34;3.08;;;1.80;;
7460;SDS011;6757;52.258;12.840;2023-08-30T00:40:01;4.22;;;1.83;;
7460;SDS011;6757;52.258;12.840;2023-08-30T00:42:29;2.63;;;2.00;;
7460;SDS011;6757;52.258;12.840;2023-08-30T00:44:57;2.53;;;1.83;;
7460;SDS011;6757;52.258;12.840;2023-08-30T00:47:24;2.53;;;2.00;;
7460;SDS011;6757;52.258;12.840;2023-08-30T00:49:51;1.75;;;1.63;;
7460;SDS011;6757;52.258;12.840;2023-08-30T00:52:18;3.20;;;1.48;;
7460;SDS011;6757;52.258;12.840;2023-08-30T00:54:45;3.38;;;2.03;;
7460;SDS011;6757;52.258;12.840;2023-08-30T00:57:12;1.70;;;1.60;;
7460;SDS011;6757;52.258;12.840;2023-08-30T00:59:39;3.95;;;2.10;;
7460;SDS011;6757;52.258;12.840;2023-08-30T01:02:08;2.88;;;1.70;;
7460;SDS011;6757;52.258;12.840;2023-08-30T01:04:35;3.67;;;2.00;;
7460;SDS011;6757;52.258;12.840;2023-08-30T01:07:02;4.32;;;1.85;;
7460;SDS011;6757;52.258;12.840;2023-08-30T01:09:29;3.53;;;1.88;;
7460;SDS011;6757;52.258;12.840;2023-08-30T01:11:57;5.13;;;2.15;;
7460;SDS011;6757;52.258;12.840;2023-08-30T01:14:38;3.50;;;1.70;;
7460;SDS011;6757;52.258;12.840;2023-08-30T01:17:11;2.33;;;1.63;;
7460;SDS011;6757;52.258;12.840;2023-08-30T01:19:46;3.35;;;1.90;;
7460;SDS011;6757;52.258;12.840;2023-08-30T01:22:27;4.60;;;1.73;;
7460;SDS011;6757;52.258;12.840;2023-08-30T01:25:09;3.22;;;1.65;;
7460;SDS011;6757;52.258;12.840;2023-08-30T01:27:47;3.60;;;1.70;;
7460;SDS011;6757;52.258;12.840;2023-08-30T01:30:16;5.15;;;2.10;;
7460;SDS011;6757;52.258;12.840;2023-08-30T01:32:45;2.47;;;1.80;;
7460;SDS011;6757;52.258;12.840;2023-08-30T01:35:12;3.10;;;1.60;;
7460;SDS011;6757;52.258;12.840;2023-08-30T01:37:42;3.92;;;1.67;;
7460;SDS011;6757;52.258;12.840;2023-08-30T01:40:11;1.98;;;1.52;;
7460;SDS011;6757;52.258;12.840;2023-08-30T01:42:39;3.35;;;1.80;;
7460;SDS011;6757;52.258;12.840;2023-08-30T01:45:09;4.90;;;1.85;;
7460;SDS011;6757;52.258;12.840;2023-08-30T01:50:07;3.05;;;1.80;;
7460;SDS011;6757;52.258;12.840;2023-08-30T01:52:36;2.50;;;1.60;;
7460;SDS011;6757;52.258;12.840;2023-08-30T01:55:03;3.42;;;2.10;;
7460;SDS011;6757;52.258;12.840;2023-08-30T01:57:32;3.05;;;1.48;;
7460;SDS011;6757;52.258;12.840;2023-08-30T01:59:59;4.50;;;2.05;;
7460;SDS011;6757;52.258;12.840;2023-08-30T02:02:29;4.15;;;2.17;;
7460;SDS011;6757;52.258;12.840;2023-08-30T02:04:56;2.63;;;1.80;;
7460;SDS011;6757;52.258;12.840;2023-08-30T02:07:25;1.83;;;1.67;;
7460;SDS011;6757;52.258;12.840;2023-08-30T02:09:57;4.07;;;2.03;;
7460;SDS011;6757;52.258;12.840;2023-08-30T02:12:35;3.35;;;2.08;;
7460;SDS011;6757;52.258;12.840;2023-08-30T02:15:08;4.95;;;2.25;;
7460;SDS011;6757;52.258;12.840;2023-08-30T02:17:39;4.25;;;2.35;;
7460;SDS011;6757;52.258;12.840;2023-08-30T02:20:06;2.38;;;1.73;;
7460;SDS011;6757;52.258;12.840;2023-08-30T02:22:34;4.35;;;2.15;;
7460;SDS011;6757;52.258;12.840;2023-08-30T02:25:01;2.00;;;1.80;;
7460;SDS011;6757;52.258;12.840;2023-08-30T02:27:29;3.33;;;2.05;;
7460;SDS011;6757;52.258;12.840;2023-08-30T02:29:57;1.80;;;1.60;;
7460;SDS011;6757;52.258;12.840;2023-08-30T02:32:23;4.82;;;2.28;;
7460;SDS011;6757;52.258;12.840;2023-08-30T02:34:52;2.78;;;1.70;;
7460;SDS011;6757;52.258;12.840;2023-08-30T02:37:19;3.15;;;2.00;;
7460;SDS011;6757;52.258;12.840;2023-08-30T02:39:46;3.28;;;1.95;;
7460;SDS011;6757;52.258;12.840;2023-08-30T02:42:13;3.33;;;1.42;;
7460;SDS011;6757;52.258;12.840;2023-08-30T02:44:40;1.88;;;1.27;;
7460;SDS011;6757;52.258;12.840;2023-08-30T02:47:07;3.25;;;2.10;;
7460;SDS011;6757;52.258;12.840;2023-08-30T02:49:34;3.72;;;2.13;;
7460;SDS011;6757;52.258;12.840;2023-08-30T02:52:02;2.20;;;1.75;;
7460;SDS011;6757;52.258;12.840;2023-08-30T02:54:30;3.90;;;2.05;;
7460;SDS011;6757;52.258;12.840;2023-08-30T02:56:57;3.08;;;1.95;;
7460;SDS011;6757;52.258;12.840;2023-08-30T02:59:24;2.35;;;1.75;;
7460;SDS011;6757;52.258;12.840;2023-08-30T03:01:50;3.13;;;1.98;;
7460;SDS011;6757;52.258;12.840;2023-08-30T03:04:17;2.90;;;1.70;;
7460;SDS011;6757;52.258;12.840;2023-08-30T03:06:44;3.53;;;1.95;;
7460;SDS011;6757;52.258;12.840;2023-08-30T03:09:12;2.67;;;2.10;;
7460;SDS011;6757;52.258;12.840;2023-08-30T03:11:39;3.08;;;1.90;;
7460;SDS011;6757;52.258;12.840;2023-08-30T03:14:06;3.33;;;1.67;;
7460;SDS011;6757;52.258;12.840;2023-08-30T03:16:33;2.38;;;1.80;;
7460;SDS011;6757;52.258;12.840;2023-08-30T03:19:00;3.00;;;1.70;;
7460;SDS011;6757;52.258;12.840;2023-08-30T03:21:28;4.90;;;2.40;;
7460;SDS011;6757;52.258;12.840;2023-08-30T03:23:55;3.80;;;1.90;;
7460;SDS011;6757;52.258;12.840;2023-08-30T03:26:23;3.92;;;1.90;;
7460;SDS011;6757;52.258;12.840;2023-08-30T03:28:50;2.42;;;1.67;;
7460;SDS011;6757;52.258;12.840;2023-08-30T03:31:17;2.88;;;1.80;;
7460;SDS011;6757;52.258;12.840;2023-08-30T03:33:46;4.10;;;1.85;;
7460;SDS011;6757;52.258;12.840;2023-08-30T03:36:14;1.90;;;1.60;;
7460;SDS011;6757;52.258;12.840;2023-08-30T03:38:42;5.88;;;2.30;;
7460;SDS011;6757;52.258;12.840;2023-08-30T03:41:10;1.88;;;1.60;;
7460;SDS011;6757;52.258;12.840;2023-08-30T03:43:39;3.72;;;1.98;;
7460;SDS011;6757;52.258;12.840;2023-08-30T03:46:06;7.80;;;2.17;;
7460;SDS011;6757;52.258;12.840;2023-08-30T03:48:34;4.40;;;1.85;;
7460;SDS011;6757;52.258;12.840;2023-08-30T03:51:01;1.70;;;1.27;;
7460;SDS011;6757;52.258;12.840;2023-08-30T03:53:28;3.28;;;1.98;;
7460;SDS011;6757;52.258;12.840;2023-08-30T03:55:56;3.67;;;1.80;;
7460;SDS011;6757;52.258;12.840;2023-08-30T03:58:23;3.30;;;1.88;;
7460;SDS011;6757;52.258;12.840;2023-08-30T04:00:51;2.20;;;1.85;;
7460;SDS011;6757;52.258;12.840;2023-08-30T04:03:18;2.83;;;1.60;;
7460;SDS011;6757;52.258;12.840;2023-08-30T04:05:45;2.85;;;1.73;;
7460;SDS011;6757;52.258;12.840;2023-08-30T04:08:12;2.72;;;2.00;;
7460;SDS011;6757;52.258;12.840;2023-08-30T04:10:39;3.20;;;1.85;;
7460;SDS011;6757;52.258;12.840;2023-08-30T04:13:08;4.28;;;2.20;;
7460;SDS011;6757;52.258;12.840;2023-08-30T04:15:36;2.92;;;1.65;;
7460;SDS011;6757;52.258;12.840;2023-08-30T04:18:06;5.38;;;2.00;;
7460;SDS011;6757;52.258;12.840;2023-08-30T04:20:33;2.05;;;1.75;;
7460;SDS011;6757;52.258;12.840;2023-08-30T04:23:00;2.97;;;1.90;;
7460;SDS011;6757;52.258;12.840;2023-08-30T04:25:28;3.10;;;1.95;;
7460;SDS011;6757;52.258;12.840;2023-08-30T04:27:56;2.15;;;1.77;;
7460;SDS011;6757;52.258;12.840;2023-08-30T04:30:23;2.05;;;1.48;;
7460;SDS011;6757;52.258;12.840;2023-08-30T04:32:50;3.03;;;1.63;;
7460;SDS011;6757;52.258;12.840;2023-08-30T04:35:18;4.90;;;2.17;;
7460;SDS011;6757;52.258;12.840;2023-08-30T04:37:45;3.05;;;1.88;;
7460;SDS011;6757;52.258;12.840;2023-08-30T04:40:13;2.70;;;1.45;;
7460;SDS011;6757;52.258;12.840;2023-08-30T04:42:40;3.47;;;2.20;;
7460;SDS011;6757;52.258;12.840;2023-08-30T04:45:08;3.67;;;1.77;;
7460;SDS011;6757;52.258;12.840;2023-08-30T04:47:36;4.22;;;2.60;;
7460;SDS011;6757;52.258;12.840;2023-08-30T04:50:03;6.15;;;2.60;;
7460;SDS011;6757;52.258;12.840;2023-08-30T04:52:32;5.13;;;2.55;;
7460;SDS011;6757;52.258;12.840;2023-08-30T04:54:59;4.05;;;2.63;;
7460;SDS011;6757;52.258;12.840;2023-08-30T04:57:26;3.92;;;2.08;;
7460;SDS011;6757;52.258;12.840;2023-08-30T04:59:53;5.03;;;2.63;;
7460;SDS011;6757;52.258;12.840;2023-08-30T05:02:21;6.20;;;2.88;;
7460;SDS011;6757;52.258;12.840;2023-08-30T05:04:48;4.32;;;2.05;;
7460;SDS011;6757;52.258;12.840;2023-08-30T05:07:14;7.85;;;2.50;;
7460;SDS011;6757;52.258;12.840;2023-08-30T05:09:43;4.30;;;1.95;;
7460;SDS011;6757;52.258;12.840;2023-08-30T05:12:10;3.97;;;1.98;;
7460;SDS011;6757;52.258;12.840;2023-08-30T05:14:36;5.22;;;2.38;;
7460;SDS011;6757;52.258;12.840;2023-08-30T05:17:03;2.17;;;1.98;;
7460;SDS011;6757;52.258;12.840;2023-08-30T05:19:30;3.47;;;2.15;;
7460;SDS011;6757;52.258;12.840;2023-08-30T05:21:57;5.68;;;2.13;;
7460;SDS011;6757;52.258;12.840;2023-08-30T05:24:24;2.85;;;2.15;;
7460;SDS011;6757;52.258;12.840;2023-08-30T05:26:54;3.65;;;2.28;;
7460;SDS011;6757;52.258;12.840;2023-08-30T05:29:21;4.32;;;2.60;;
7460;SDS011;6757;52.258;12.840;2023-08-30T05:31:48;4.20;;;1.88;;
7460;SDS011;6757;52.258;12.840;2023-08-30T05:34:15;1.90;;;1.45;;
7460;SDS011;6757;52.258;12.840;2023-08-30T05:36:42;3.88;;;1.90;;
7460;SDS011;6757;52.258;12.840;2023-08-30T05:39:09;3.30;;;1.92;;
7460;SDS011;6757;52.258;12.840;2023-08-30T05:41:35;5.35;;;2.17;;
7460;SDS011;6757;52.258;12.840;2023-08-30T05:44:04;2.63;;;2.03;;
7460;SDS011;6757;52.258;12.840;2023-08-30T05:46:32;4.15;;;2.08;;
7460;SDS011;6757;52.258;12.840;2023-08-30T05:48:59;3.67;;;2.10;;
7460;SDS011;6757;52.258;12.840;2023-08-30T05:51:27;5.68;;;2.17;;
7460;SDS011;6757;52.258;12.840;2023-08-30T05:53:54;4.55;;;2.20;;
7460;SDS011;6757;52.258;12.840;2023-08-30T05:56:21;2.70;;;2.10;;
7460;SDS011;6757;52.258;12.840;2023-08-30T05:58:48;3.72;;;2.05;;
7460;SDS011;6757;52.258;12.840;2023-08-30T06:01:17;3.70;;;2.20;;
7460;SDS011;6757;52.258;12.840;2023-08-30T06:03:45;4.35;;;2.10;;
7460;SDS011;6757;52.258;12.840;2023-08-30T06:06:12;3.35;;;1.90;;
7460;SDS011;6757;52.258;12.840;2023-08-30T06:08:39;3.88;;;2.20;;
7460;SDS011;6757;52.258;12.840;2023-08-30T06:11:05;3.92;;;1.90;;
7460;SDS011;6757;52.258;12.840;2023-08-30T06:13:33;4.15;;;2.30;;
7460;SDS011;6757;52.258;12.840;2023-08-30T06:15:59;2.97;;;1.75;;
7460;SDS011;6757;52.258;12.840;2023-08-30T06:18:29;3.58;;;1.90;;
7460;SDS011;6757;52.258;12.840;2023-08-30T06:20:57;2.65;;;1.75;;
7460;SDS011;6757;52.258;12.840;2023-08-30T06:23:24;4.60;;;2.25;;
7460;SDS011;6757;52.258;12.840;2023-08-30T06:25:54;5.38;;;2.35;;
7460;SDS011;6757;52.258;12.840;2023-08-30T06:28:21;2.92;;;1.65;;
7460;SDS011;6757;52.258;12.840;2023-08-30T06:30:48;2.35;;;1.90;;
7460;SDS011;6757;52.258;12.840;2023-08-30T06:33:15;1.92;;;1.67;;
7460;SDS011;6757;52.258;12.840;2023-08-30T06:35:43;3.08;;;1.85;;
7460;SDS011;6757;52.258;12.840;2023-08-30T06:38:13;4.78;;;2.40;;
7460;SDS011;6757;52.258;12.840;2023-08-30T06:40:42;3.83;;;2.03;;
7460;SDS011;6757;52.258;12.840;2023-08-30T06:43:11;3.70;;;2.03;;
7460;SDS011;6757;52.258;12.840;2023-08-30T06:45:39;3.45;;;1.83;;
7460;SDS011;6757;52.258;12.840;2023-08-30T06:48:07;3.28;;;2.00;;
7460;SDS011;6757;52.258;12.840;2023-08-30T06:50:33;4.25;;;1.80;;
7460;SDS011;6757;52.258;12.840;2023-08-30T06:53:02;6.35;;;2.58;;
7460;SDS011;6757;52.258;12.840;2023-08-30T06:55:29;4.38;;;2.30;;
7460;SDS011;6757;52.258;12.840;2023-08-30T06:57:58;2.30;;;1.92;;
7460;SDS011;6757;52.258;12.840;2023-08-30T07:00:25;2.70;;;1.83;;
7460;SDS011;6757;52.258;12.840;2023-08-30T07:02:52;4.00;;;2.30;;
7460;SDS011;6757;52.258;12.840;2023-08-30T07:05:19;6.38;;;2.65;;
7460;SDS011;6757;52.258;12.840;2023-08-30T07:07:48;2.60;;;2.03;;
7460;SDS011;6757;52.258;12.840;2023-08-30T07:10:16;4.97;;;2.50;;
7460;SDS011;6757;52.258;12.840;2023-08-30T07:12:43;2.67;;;1.90;;
7460;SDS011;6757;52.258;12.840;2023-08-30T07:15:10;4.90;;;2.50;;
7460;SDS011;6757;52.258;12.840;2023-08-30T07:17:37;3.92;;;2.17;;
7460;SDS011;6757;52.258;12.840;2023-08-30T07:20:07;5.97;;;2.45;;
7460;SDS011;6757;52.258;12.840;2023-08-30T07:22:35;4.88;;;2.35;;
7460;SDS011;6757;52.258;12.840;2023-08-30T07:25:02;4.90;;;2.47;;
7460;SDS011;6757;52.258;12.840;2023-08-30T07:27:32;6.18;;;2.40;;
7460;SDS011;6757;52.258;12.840;2023-08-30T07:29:59;4.72;;;2.05;;
7460;SDS011;6757;52.258;12.840;2023-08-30T07:32:26;3.35;;;2.00;;
7460;SDS011;6757;52.258;12.840;2023-08-30T07:34:53;3.25;;;2.08;;
7460;SDS011;6757;52.258;12.840;2023-08-30T07:37:20;4.65;;;2.30;;
7460;SDS011;6757;52.258;12.840;2023-08-30T07:39:48;5.75;;;2.53;;
7460;SDS011;6757;52.258;12.840;2023-08-30T07:42:14;6.72;;;2.92;;
7460;SDS011;6757;52.258;12.840;2023-08-30T07:44:43;3.60;;;2.05;;
7460;SDS011;6757;52.258;12.840;2023-08-30T07:47:09;4.38;;;2.40;;
7460;SDS011;6757;52.258;12.840;2023-08-30T07:49:36;5.18;;;2.45;;
7460;SDS011;6757;52.258;12.840;2023-08-30T07:52:04;4.78;;;2.25;;
7460;SDS011;6757;52.258;12.840;2023-08-30T07:54:33;4.93;;;2.50;;
7460;SDS011;6757;52.258;12.840;2023-08-30T07:57:00;7.15;;;2.67;;
7460;SDS011;6757;52.258;12.840;2023-08-30T07:59:27;3.58;;;2.30;;
7460;SDS011;6757;52.258;12.840;2023-08-30T08:01:56;4.95;;;2.30;;
7460;SDS011;6757;52.258;12.840;2023-08-30T08:04:22;4.93;;;2.45;;
7460;SDS011;6757;52.258;12.840;2023-08-30T08:06:49;6.03;;;3.08;;
7460;SDS011;6757;52.258;12.840;2023-08-30T08:09:16;6.13;;;2.70;;
7460;SDS011;6757;52.258;12.840;2023-08-30T08:11:43;4.40;;;2.25;;
7460;SDS011;6757;52.258;12.840;2023-08-30T08:14:10;4.75;;;2.47;;
7460;SDS011;6757;52.258;12.840;2023-08-30T08:16:38;4.35;;;2.13;;
7460;SDS011;6757;52.258;12.840;2023-08-30T08:19:06;6.55;;;2.67;;
7460;SDS011;6757;52.258;12.840;2023-08-30T08:21:33;4.50;;;2.45;;
7460;SDS011;6757;52.258;12.840;2023-08-30T08:24:01;5.65;;;2.70;;
7460;SDS011;6757;52.258;12.840;2023-08-30T08:26:28;5.88;;;3.00;;
7460;SDS011;6757;52.258;12.840;2023-08-30T08:28:55;5.07;;;2.47;;
7460;SDS011;6757;52.258;12.840;2023-08-30T08:31:22;3.72;;;2.30;;
7460;SDS011;6757;52.258;12.840;2023-08-30T08:33:51;4.18;;;2.67;;
7460;SDS011;6757;52.258;12.840;2023-08-30T08:36:33;6.68;;;2.95;;
7460;SDS011;6757;52.258;12.840;2023-08-30T08:39:00;4.30;;;2.22;;
7460;SDS011;6757;52.258;12.840;2023-08-30T08:41:31;6.47;;;2.88;;
7460;SDS011;6757;52.258;12.840;2023-08-30T08:44:06;5.80;;;2.47;;
7460;SDS011;6757;52.258;12.840;2023-08-30T08:46:34;5.38;;;2.40;;
7460;SDS011;6757;52.258;12.840;2023-08-30T08:49:05;5.38;;;2.72;;
7460;SDS011;6757;52.258;12.840;2023-08-30T08:51:38;7.25;;;3.20;;
7460;SDS011;6757;52.258;12.840;2023-08-30T08:54:06;7.03;;;2.78;;
7460;SDS011;6757;52.258;12.840;2023-08-30T08:56:35;5.22;;;2.83;;
7460;SDS011;6757;52.258;12.840;2023-08-30T08:59:04;8.20;;;3.10;;
7460;SDS011;6757;52.258;12.840;2023-08-30T09:01:33;4.95;;;2.53;;
7460;SDS011;6757;52.258;12.840;2023-08-30T09:04:01;6.78;;;2.90;;
7460;SDS011;6757;52.258;12.840;2023-08-30T09:06:32;6.85;;;3.08;;
7460;SDS011;6757;52.258;12.840;2023-08-30T09:09:00;4.43;;;2.50;;
7460;SDS011;6757;52.258;12.840;2023-08-30T09:11:28;7.72;;;3.28;;
7460;SDS011;6757;52.258;12.840;2023-08-30T09:13:55;6.32;;;2.92;;
7460;SDS011;6757;52.258;12.840;2023-08-30T09:16:22;3.15;;;2.50;;
7460;SDS011;6757;52.258;12.840;2023-08-30T09:18:56;5.53;;;3.15;;
7460;SDS011;6757;52.258;12.840;2023-08-30T09:21:25;8.50;;;3.33;;
7460;SDS011;6757;52.258;12.840;2023-08-30T09:24:00;5.78;;;2.80;;
7460;SDS011;6757;52.258;12.840;2023-08-30T09:26:29;8.73;;;2.80;;
7460;SDS011;6757;52.258;12.840;2023-08-30T09:29:00;6.80;;;2.80;;
7460;SDS011;6757;52.258;12.840;2023-08-30T09:31:32;5.75;;;2.50;;
7460;SDS011;6757;52.258;12.840;2023-08-30T09:34:01;6.63;;;2.80;;
7460;SDS011;6757;52.258;12.840;2023-08-30T09:36:32;6.47;;;2.75;;
7460;SDS011;6757;52.258;12.840;2023-08-30T09:39:04;6.72;;;2.78;;
7460;SDS011;6757;52.258;12.840;2023-08-30T09:41:31;4.57;;;2.50;;
7460;SDS011;6757;52.258;12.840;2023-08-30T09:43:58;4.38;;;2.60;;
7460;SDS011;6757;52.258;12.840;2023-08-30T09:46:26;4.65;;;2.40;;
7460;SDS011;6757;52.258;12.840;2023-08-30T09:48:53;4.53;;;2.38;;
7460;SDS011;6757;52.258;12.840;2023-08-30T09:51:21;6.65;;;2.92;;
7460;SDS011;6757;52.258;12.840;2023-08-30T09:53:53;5.22;;;3.00;;
7460;SDS011;6757;52.258;12.840;2023-08-30T09:56:26;5.82;;;2.80;;
7460;SDS011;6757;52.258;12.840;2023-08-30T09:58:53;5.95;;;2.50;;
7460;SDS011;6757;52.258;12.840;2023-08-30T10:01:20;5.68;;;2.90;;
7460;SDS011;6757;52.258;12.840;2023-08-30T10:03:48;4.72;;;2.72;;
7460;SDS011;6757;52.258;12.840;2023-08-30T10:06:15;7.85;;;2.72;;
7460;SDS011;6757;52.258;12.840;2023-08-30T10:08:42;6.07;;;2.67;;
7460;SDS011;6757;52.258;12.840;2023-08-30T10:11:12;6.07;;;2.20;;
7460;SDS011;6757;52.258;12.840;2023-08-30T10:13:43;4.05;;;2.33;;
7460;SDS011;6757;52.258;12.840;2023-08-30T10:16:12;6.82;;;3.03;;
7460;SDS011;6757;52.258;12.840;2023-08-30T10:18:47;4.47;;;2.45;;
7460;SDS011;6757;52.258;12.840;2023-08-30T10:21:19;3.53;;;2.08;;
7460;SDS011;6757;52.258;12.840;2023-08-30T10:23:47;4.20;;;2.10;;
7460;SDS011;6757;52.258;12.840;2023-08-30T10:26:20;3.20;;;2.03;;
7460;SDS011;6757;52.258;12.840;2023-08-30T10:28:51;3.13;;;2.05;;
7460;SDS011;6757;52.258;12.840;2023-08-30T10:31:19;3.38;;;2.30;;
7460;SDS011;6757;52.258;12.840;2023-08-30T10:33:47;2.92;;;1.83;;
7460;SDS011;6757;52.258;12.840;2023-08-30T10:36:20;4.57;;;2.33;;
7460;SDS011;6757;52.258;12.840;2023-08-30T10:38:48;3.05;;;2.30;;
7460;SDS011;6757;52.258;12.840;2023-08-30T10:41:19;3.80;;;2.40;;
7460;SDS011;6757;52.258;12.840;2023-08-30T10:43:50;3.00;;;1.95;;
7460;SDS011;6757;52.258;12.840;2023-08-30T10:46:28;2.97;;;1.63;;
7460;SDS011;6757;52.258;12.840;2023-08-30T10:48:57;4.25;;;2.30;;
7460;SDS011;6757;52.258;12.840;2023-08-30T10:51:36;2.45;;;1.85;;
7460;SDS011;6757;52.258;12.840;2023-08-30T10:54:10;3.17;;;2.10;;
7460;SDS011;6757;52.258;12.840;2023-08-30T10:56:47;4.13;;;2.10;;
7460;SDS011;6757;52.258;12.840;2023-08-30T10:59:23;2.75;;;2.10;;
7460;SDS011;6757;52.258;12.840;2023-08-30T11:01:50;3.13;;;2.00;;
7460;SDS011;6757;52.258;12.840;2023-08-30T11:04:18;4.13;;;2.25;;
7460;SDS011;6757;52.258;12.840;2023-08-30T11:06:47;2.35;;;2.03;;
7460;SDS011;6757;52.258;12.840;2023-08-30T11:09:16;3.58;;;2.22;;
7460;SDS011;6757;52.258;12.840;2023-08-30T11:11:44;3.80;;;2.15;;
7460;SDS011;6757;52.258;12.840;2023-08-30T11:14:12;3.17;;;1.90;;
7460;SDS011;6757;52.258;12.840;2023-08-30T11:16:40;2.20;;;2.00;;
7460;SDS011;6757;52.258;12.840;2023-08-30T11:19:08;2.10;;;1.90;;
7460;SDS011;6757;52.258;12.840;2023-08-30T11:21:37;2.45;;;1.90;;
7460;SDS011;6757;52.258;12.840;2023-08-30T11:24:06;4.70;;;2.28;;
7460;SDS011;6757;52.258;12.840;2023-08-30T11:26:34;5.90;;;2.30;;
7460;SDS011;6757;52.258;12.840;2023-08-30T11:29:04;3.80;;;2.10;;
7460;SDS011;6757;52.258;12.840;2023-08-30T11:31:31;3.13;;;1.90;;
7460;SDS011;6757;52.258;12.840;2023-08-30T11:34:00;3.33;;;1.90;;
7460;SDS011;6757;52.258;12.840;2023-08-30T11:36:28;2.53;;;1.90;;
7460;SDS011;6757;52.258;12.840;2023-08-30T11:38:56;1.63;;;1.50;;
7460;SDS011;6757;52.258;12.840;2023-08-30T11:41:24;2.78;;;2.00;;
7460;SDS011;6757;52.258;12.840;2023-08-30T11:43:52;2.17;;;1.90;;
7460;SDS011;6757;52.258;12.840;2023-08-30T11:46:20;2.05;;;1.80;;
7460;SDS011;6757;52.258;12.840;2023-08-30T11:48:47;3.45;;;2.00;;
7460;SDS011;6757;52.258;12.840;2023-08-30T11:51:18;2.42;;;2.10;;
7460;SDS011;6757;52.258;12.840;2023-08-30T11:53:46;3.33;;;2.10;;
7460;SDS011;6757;52.258;12.840;2023-08-30T11:56:14;3.33;;;1.98;;
7460;SDS011;6757;52.258;12.840;2023-08-30T11:58:42;2.78;;;2.00;;
7460;SDS011;6757;52.258;12.840;2023-08-30T12:01:09;2.90;;;2.20;;
7460;SDS011;6757;52.258;12.840;2023-08-30T12:03:37;3.38;;;2.13;;
7460;SDS011;6757;52.258;12.840;2023-08-30T12:06:08;1.70;;;1.60;;
7460;SDS011;6757;52.258;12.840;2023-08-30T12:08:38;3.22;;;1.77;;
7460;SDS011;6757;52.258;12.840;2023-08-30T12:11:05;2.55;;;2.08;;
7460;SDS011;6757;52.258;12.840;2023-08-30T12:13:32;2.08;;;1.75;;
7460;SDS011;6757;52.258;12.840;2023-08-30T12:16:00;2.95;;;1.85;;
7460;SDS011;6757;52.258;12.840;2023-08-30T12:18:28;2.08;;;1.88;;
7460;SDS011;6757;52.258;12.840;2023-08-30T12:20:58;2.97;;;2.03;;
7460;SDS011;6757;52.258;12.840;2023-08-30T12:23:27;1.80;;;1.70;;
7460;SDS011;6757;52.258;12.840;2023-08-30T12:26:00;3.10;;;1.83;;
7460;SDS011;6757;52.258;12.840;2023-08-30T12:28:30;3.78;;;1.95;;
7460;SDS011;6757;52.258;12.840;2023-08-30T12:30:59;1.83;;;1.70;;
7460;SDS011;6757;52.258;12.840;2023-08-30T12:33:26;1.65;;;1.50;;
7460;SDS011;6757;52.258;12.840;2023-08-30T12:35:54;1.85;;;1.63;;
7460;SDS011;6757;52.258;12.840;2023-08-30T12:38:21;3.20;;;1.90;;
7460;SDS011;6757;52.258;12.840;2023-08-30T12:40:49;2.78;;;2.00;;
7460;SDS011;6757;52.258;12.840;2023-08-30T12:43:19;3.22;;;1.80;;
7460;SDS011;6757;52.258;12.840;2023-08-30T12:45:46;1.75;;;1.65;;
7460;SDS011;6757;52.258;12.840;2023-08-30T12:48:15;2.42;;;1.80;;
7460;SDS011;6757;52.258;12.840;2023-08-30T12:50:43;1.88;;;1.70;;
7460;SDS011;6757;52.258;12.840;2023-08-30T12:53:11;1.98;;;1.77;;
7460;SDS011;6757;52.258;12.840;2023-08-30T12:55:40;1.92;;;1.83;;
7460;SDS011;6757;52.258;12.840;2023-08-30T12:58:07;2.97;;;1.90;;
7460;SDS011;6757;52.258;12.840;2023-08-30T13:00:36;4.50;;;1.70;;
7460;SDS011;6757;52.258;12.840;2023-08-30T13:03:03;1.75;;;1.65;;
7460;SDS011;6757;52.258;12.840;2023-08-30T13:05:30;2.17;;;1.48;;
7460;SDS011;6757;52.258;12.840;2023-08-30T13:07:58;1.80;;;1.52;;
7460;SDS011;6757;52.258;12.840;2023-08-30T13:10:25;3.47;;;1.90;;
7460;SDS011;6757;52.258;12.840;2023-08-30T13:12:53;2.40;;;2.05;;
7460;SDS011;6757;52.258;12.840;2023-08-30T13:15:20;2.53;;;1.80;;
7460;SDS011;6757;52.258;12.840;2023-08-30T13:17:48;2.60;;;2.08;;
7460;SDS011;6757;52.258;12.840;2023-08-30T13:20:16;3.60;;;1.95;;
7460;SDS011;6757;52.258;12.840;2023-08-30T13:22:43;1.65;;;1.50;;
7460;SDS011;6757;52.258;12.840;2023-08-30T13:25:10;2.70;;;1.80;;
7460;SDS011;6757;52.258;12.840;2023-08-30T13:27:37;3.38;;;1.60;;
7460;SDS011;6757;52.258;12.840;2023-08-30T13:30:04;2.10;;;1.80;;
7460;SDS011;6757;52.258;12.840;2023-08-30T13:32:32;2.00;;;1.77;;
7460;SDS011;6757;52.258;12.840;2023-08-30T13:35:01;2.50;;;2.03;;
7460;SDS011;6757;52.258;12.840;2023-08-30T13:37:28;1.65;;;1.63;;
7460;SDS011;6757;52.258;12.840;2023-08-30T13:39:55;2.80;;;2.00;;
7460;SDS011;6757;52.258;12.840;2023-08-30T13:42:22;1.63;;;1.52;;
7460;SDS011;6757;52.258;12.840;2023-08-30T13:44:52;3.42;;;2.00;;
7460;SDS011;6757;52.258;12.840;2023-08-30T13:47:19;1.75;;;1.58;;
7460;SDS011;6757;52.258;12.840;2023-08-30T13:49:46;2.53;;;1.95;;
7460;SDS011;6757;52.258;12.840;2023-08-30T13:52:14;3.10;;;2.05;;
7460;SDS011;6757;52.258;12.840;2023-08-30T13:54:41;3.00;;;1.80;;
7460;SDS011;6757;52.258;12.840;2023-08-30T13:57:08;1.70;;;1.60;;
7460;SDS011;6757;52.258;12.840;2023-08-30T13:59:36;1.77;;;1.40;;
7460;SDS011;6757;52.258;12.840;2023-08-30T14:02:03;2.38;;;1.75;;
7460;SDS011;6757;52.258;12.840;2023-08-30T14:04:30;2.08;;;1.80;;
7460;SDS011;6757;52.258;12.840;2023-08-30T14:06:59;1.95;;;1.80;;
7460;SDS011;6757;52.258;12.840;2023-08-30T14:09:27;2.65;;;1.80;;
7460;SDS011;6757;52.258;12.840;2023-08-30T14:11:54;1.50;;;1.40;;
7460;SDS011;6757;52.258;12.840;2023-08-30T14:14:21;1.98;;;1.77;;
7460;SDS011;6757;52.258;12.840;2023-08-30T14:16:48;2.20;;;1.60;;
7460;SDS011;6757;52.258;12.840;2023-08-30T14:19:15;2.05;;;1.80;;
7460;SDS011;6757;52.258;12.840;2023-08-30T14:21:42;1.83;;;1.60;;
7460;SDS011;6757;52.258;12.840;2023-08-30T14:24:10;2.25;;;2.05;;
7460;SDS011;6757;52.258;12.840;2023-08-30T14:26:38;1.90;;;1.70;;
7460;SDS011;6757;52.258;12.840;2023-08-30T14:29:05;2.28;;;1.83;;
7460;SDS011;6757;52.258;12.840;2023-08-30T14:31:32;2.78;;;1.77;;
7460;SDS011;6757;52.258;12.840;2023-08-30T14:33:59;3.08;;;2.10;;
7460;SDS011;6757;52.258;12.840;2023-08-30T14:36:26;2.30;;;2.00;;
7460;SDS011;6757;52.258;12.840;2023-08-30T14:38:52;3.08;;;2.00;;
7460;SDS011;6757;52.258;12.840;2023-08-30T14:41:19;1.85;;;1.67;;
7460;SDS011;6757;52.258;12.840;2023-08-30T14:43:47;2.10;;;1.90;;
7460;SDS011;6757;52.258;12.840;2023-08-30T14:46:14;1.83;;;1.73;;
7460;SDS011;6757;52.258;12.840;2023-08-30T14:48:43;1.55;;;1.45;;
7460;SDS011;6757;52.258;12.840;2023-08-30T14:51:10;2.13;;;1.92;;
7460;SDS011;6757;52.258;12.840;2023-08-30T14:53:37;2.00;;;1.80;;
7460;SDS011;6757;52.258;12.840;2023-08-30T14:56:04;2.65;;;1.90;;
7460;SDS011;6757;52.258;12.840;2023-08-30T14:58:32;1.70;;;1.60;;
7460;SDS011;6757;52.258;12.840;2023-08-30T15:01:01;3.38;;;1.60;;
7460;SDS011;6757;52.258;12.840;2023-08-30T15:03:28;2.30;;;1.77;;
7460;SDS011;6757;52.258;12.840;2023-08-30T15:05:56;1.95;;;1.65;;
7460;SDS011;6757;52.258;12.840;2023-08-30T15:08:23;2.75;;;2.00;;